createdAt,value
2023-04-23T00:01:41.102Z,99.90
2023-04-23T00:04:09.464Z,99.90
2023-04-23T00:06:37.827Z,99.90
2023-04-23T00:09:06.961Z,99.90
2023-04-23T00:11:34.750Z,99.90
2023-04-23T00:14:02.436Z,99.90
2023-04-23T00:16:30.313Z,99.90
2023-04-23T00:18:57.934Z,99.90
2023-04-23T00:21:25.452Z,99.90
2023-04-23T00:23:53.063Z,99.90
2023-04-23T00:26:20.859Z,99.90
2023-04-23T00:28:48.353Z,99.90
2023-04-23T00:31:16.032Z,99.90
2023-04-23T00:33:43.847Z,99.90
2023-04-23T00:36:11.509Z,99.90
2023-04-23T00:38:39.055Z,99.90
2023-04-23T00:41:07.473Z,99.90
2023-04-23T00:43:38.160Z,99.90
2023-04-23T00:46:06.320Z,99.90
2023-04-23T00:48:34.822Z,99.90
2023-04-23T00:51:06.621Z,99.90
2023-04-23T00:53:34.468Z,99.90
2023-04-23T00:56:04.228Z,99.90
2023-04-23T00:58:33.167Z,99.90
2023-04-23T01:01:04.473Z,99.90
2023-04-23T01:03:34.675Z,99.90
2023-04-23T01:06:03.656Z,99.90
2023-04-23T01:08:32.219Z,99.90
2023-04-23T01:11:00.608Z,99.90
2023-04-23T01:13:29.758Z,99.90
2023-04-23T01:15:58.097Z,99.90
2023-04-23T01:18:25.765Z,99.90
2023-04-23T01:20:53.854Z,99.90
2023-04-23T01:23:21.960Z,99.90
2023-04-23T01:25:49.952Z,99.90
2023-04-23T01:28:17.758Z,99.90
2023-04-23T01:30:46.644Z,99.90
2023-04-23T01:33:15.007Z,99.90
2023-04-23T01:35:43.553Z,99.90
2023-04-23T01:38:14.171Z,99.90
2023-04-23T01:40:42.306Z,99.90
2023-04-23T01:43:10.052Z,99.90
2023-04-23T01:45:37.770Z,99.90
2023-04-23T01:48:05.440Z,99.90
2023-04-23T01:50:33.472Z,99.90
2023-04-23T01:53:01.156Z,99.90
2023-04-23T01:55:28.689Z,99.90
2023-04-23T01:57:56.289Z,99.90
2023-04-23T02:00:23.874Z,99.90
2023-04-23T02:02:53.827Z,99.90
2023-04-23T02:05:21.930Z,99.90
2023-04-23T02:07:51.040Z,99.90
2023-04-23T02:10:18.836Z,99.90
2023-04-23T02:12:48.300Z,99.90
2023-04-23T02:15:16.544Z,99.90
2023-04-23T02:17:44.190Z,99.90
2023-04-23T02:20:12.696Z,99.90
2023-04-23T02:22:42.008Z,99.90
2023-04-23T02:25:10.619Z,99.90
2023-04-23T02:27:38.264Z,99.90
2023-04-23T02:30:08.464Z,99.90
2023-04-23T02:32:37.434Z,99.90
2023-04-23T02:35:06.722Z,99.90
2023-04-23T02:37:34.639Z,99.90
2023-04-23T02:40:02.497Z,99.90
2023-04-23T02:42:30.073Z,99.90
2023-04-23T02:44:57.754Z,99.90
2023-04-23T02:47:25.518Z,99.90
2023-04-23T02:49:53.552Z,99.90
2023-04-23T02:52:21.444Z,99.90
2023-04-23T02:54:49.017Z,99.90
2023-04-23T02:57:16.641Z,99.90
2023-04-23T02:59:44.235Z,99.90
2023-04-23T03:02:12.228Z,99.90
2023-04-23T03:04:40.255Z,99.90
2023-04-23T03:07:08.208Z,99.90
2023-04-23T03:09:36.472Z,99.90
2023-04-23T03:12:04.210Z,99.90
2023-04-23T03:14:31.754Z,99.90
2023-04-23T03:16:59.610Z,99.90
2023-04-23T03:19:27.891Z,99.90
2023-04-23T03:21:55.638Z,99.90
2023-04-23T03:24:23.396Z,99.90
2023-04-23T03:26:50.916Z,99.90
2023-04-23T03:29:18.483Z,99.90
2023-04-23T03:31:46.074Z,99.90
2023-04-23T03:34:14.664Z,99.90
2023-04-23T03:36:44.734Z,99.90
2023-04-23T03:39:12.692Z,99.90
2023-04-23T03:41:49.677Z,99.90
2023-04-23T03:44:20.368Z,99.90
2023-04-23T03:46:47.986Z,99.90
2023-04-23T03:49:17.351Z,99.90
2023-04-23T03:51:45.507Z,99.90
2023-04-23T03:54:13.122Z,99.90
2023-04-23T03:56:57.644Z,99.90
2023-04-23T03:59:29.062Z,99.90
2023-04-23T04:01:59.861Z,99.90
2023-04-23T04:04:28.357Z,99.90
2023-04-23T04:06:57.801Z,99.90
2023-04-23T04:09:28.816Z,99.90
2023-04-23T04:12:00.374Z,99.90
2023-04-23T04:14:27.923Z,99.90
2023-04-23T04:16:55.592Z,99.90
2023-04-23T04:19:23.673Z,99.90
2023-04-23T04:21:54.176Z,99.90
2023-04-23T04:24:23.675Z,99.90
2023-04-23T04:26:52.744Z,99.90
2023-04-23T04:29:21.966Z,99.90
2023-04-23T04:31:49.707Z,99.90
2023-04-23T04:34:18.005Z,99.90
2023-04-23T04:36:45.826Z,99.90
2023-04-23T04:39:16.460Z,99.90
2023-04-23T04:41:44.521Z,99.90
2023-04-23T04:44:14.273Z,99.90
2023-04-23T04:46:43.034Z,99.90
2023-04-23T04:49:11.870Z,99.90
2023-04-23T04:51:41.184Z,99.90
2023-04-23T04:54:08.937Z,99.90
2023-04-23T04:56:36.549Z,99.90
2023-04-23T04:59:04.314Z,99.90
2023-04-23T05:01:33.459Z,99.90
2023-04-23T05:04:01.190Z,99.90
2023-04-23T05:06:29.028Z,99.90
2023-04-23T05:08:57.119Z,99.90
2023-04-23T05:11:24.754Z,99.90
2023-04-23T05:13:52.320Z,99.90
2023-04-23T05:16:19.892Z,99.90
2023-04-23T05:18:47.613Z,99.90
2023-04-23T05:21:15.764Z,99.90
2023-04-23T05:23:43.294Z,99.90
2023-04-23T05:26:11.923Z,99.90
2023-04-23T05:28:39.439Z,99.90
2023-04-23T05:31:07.009Z,99.90
2023-04-23T05:33:46.423Z,99.90
2023-04-23T05:36:17.424Z,99.90
2023-04-23T05:38:45.270Z,99.90
2023-04-23T05:41:12.888Z,99.90
2023-04-23T05:43:40.479Z,99.90
2023-04-23T05:46:08.287Z,99.90
2023-04-23T05:48:35.998Z,99.90
2023-04-23T05:51:03.895Z,99.90
2023-04-23T05:53:31.509Z,99.90
2023-04-23T05:55:59.118Z,99.90
2023-04-23T05:58:26.670Z,99.90
2023-04-23T06:00:54.435Z,99.90
2023-04-23T06:03:22.211Z,99.90
2023-04-23T06:05:50.107Z,99.90
2023-04-23T06:08:18.412Z,99.90
2023-04-23T06:10:46.292Z,99.90
2023-04-23T06:13:13.909Z,99.90
2023-04-23T06:15:41.667Z,99.90
2023-04-23T06:18:10.478Z,99.90
2023-04-23T06:20:38.206Z,99.90
2023-04-23T06:23:06.613Z,99.90
2023-04-23T06:25:34.138Z,99.90
2023-04-23T06:28:01.736Z,99.90
2023-04-23T06:30:34.432Z,99.90
2023-04-23T06:33:02.628Z,99.90
2023-04-23T06:35:31.178Z,99.90
2023-04-23T06:37:58.764Z,99.90
2023-04-23T06:40:26.446Z,99.90
2023-04-23T06:42:54.033Z,99.90
2023-04-23T06:45:38.525Z,99.90
2023-04-23T06:48:06.837Z,99.90
2023-04-23T06:50:34.454Z,99.90
2023-04-23T06:53:02.232Z,99.90
2023-04-23T06:55:29.908Z,99.90
2023-04-23T06:57:58.412Z,99.90
2023-04-23T07:13:17.944Z,99.90
2023-04-23T07:15:46.612Z,99.90
2023-04-23T07:18:14.564Z,99.90
2023-04-23T07:20:42.359Z,99.90
2023-04-23T07:23:10.499Z,99.90
2023-04-23T07:25:38.142Z,99.90
2023-04-23T07:28:05.849Z,99.90
2023-04-23T07:30:33.516Z,99.90
2023-04-23T07:33:01.281Z,99.90
2023-04-23T07:35:28.993Z,99.90
2023-04-23T07:37:58.024Z,99.90
2023-04-23T07:40:26.158Z,99.90
2023-04-23T07:42:53.857Z,99.90
2023-04-23T07:45:21.621Z,99.90
2023-04-23T07:47:50.658Z,99.90
2023-04-23T07:50:18.528Z,99.90
2023-04-23T07:52:47.387Z,99.90
2023-04-23T07:55:15.376Z,99.90
2023-04-23T07:57:44.361Z,99.90
2023-04-23T08:00:12.460Z,99.90
2023-04-23T08:02:41.965Z,99.90
2023-04-23T08:05:10.221Z,99.90
2023-04-23T08:07:38.104Z,99.90
2023-04-23T08:10:06.765Z,99.90
2023-04-23T08:12:36.167Z,99.90
2023-04-23T08:15:04.614Z,99.90
2023-04-23T08:17:39.090Z,99.90
2023-04-23T08:20:07.913Z,99.90
2023-04-23T08:22:35.970Z,99.90
2023-04-23T08:25:04.798Z,99.90
2023-04-23T08:27:32.457Z,99.90
2023-04-23T08:30:00.188Z,99.90
2023-04-23T08:32:29.511Z,99.90
2023-04-23T08:35:00.228Z,99.90
2023-04-23T08:37:31.433Z,99.90
2023-04-23T08:40:02.227Z,99.90
2023-04-23T08:42:29.820Z,99.90
2023-04-23T08:44:58.205Z,99.90
2023-04-23T08:47:30.434Z,99.90
2023-04-23T08:50:02.255Z,99.90
2023-04-23T08:52:33.958Z,99.90
2023-04-23T08:55:04.970Z,99.90
2023-04-23T08:57:40.054Z,99.90
2023-04-23T09:00:12.160Z,99.90
2023-04-23T09:02:45.606Z,99.90
2023-04-23T09:05:17.309Z,99.90
2023-04-23T09:07:46.004Z,99.90
2023-04-23T09:10:18.431Z,99.90
2023-04-23T09:12:48.323Z,99.90
2023-04-23T09:15:16.928Z,99.90
2023-04-23T09:17:47.275Z,99.90
2023-04-23T09:20:16.227Z,99.90
2023-04-23T09:22:52.645Z,99.90
2023-04-23T09:25:24.741Z,99.60
2023-04-23T09:27:53.254Z,98.40
2023-04-23T09:30:21.080Z,99.90
2023-04-23T09:32:49.679Z,97.30
2023-04-23T09:35:20.166Z,97.10
2023-04-23T09:37:50.462Z,97.80
2023-04-23T09:40:20.495Z,97.40
2023-04-23T09:42:52.999Z,95.80
2023-04-23T09:45:21.535Z,96.30
2023-04-23T09:47:51.966Z,96.70
2023-04-23T09:50:40.661Z,94.20
2023-04-23T09:53:10.236Z,94.60
2023-04-23T09:55:39.628Z,93.40
2023-04-23T09:58:15.840Z,93.00
2023-04-23T10:00:43.802Z,94.40
2023-04-23T10:03:12.119Z,94.30
2023-04-23T10:08:16.793Z,94.40
2023-04-23T10:10:57.456Z,94.40
2023-04-23T10:13:30.728Z,95.10
2023-04-23T10:16:14.120Z,95.20
2023-04-23T10:18:51.085Z,94.80
2023-04-23T10:21:20.373Z,95.90
2023-04-23T10:35:38.364Z,95.70
2023-04-23T10:38:06.915Z,93.70
2023-04-23T10:40:36.724Z,94.10
2023-04-23T10:43:04.448Z,94.20
2023-04-23T10:45:33.016Z,92.40
2023-04-23T10:48:01.058Z,93.70
2023-04-23T10:50:36.095Z,93.90
2023-04-23T10:53:04.086Z,91.90
2023-04-23T10:55:35.797Z,92.40
2023-04-23T10:58:08.530Z,93.40
2023-04-23T11:00:46.849Z,91.20
2023-04-23T11:03:33.337Z,88.40
2023-04-23T11:06:06.267Z,91.20
2023-04-23T11:08:37.335Z,90.20
2023-04-23T11:11:09.404Z,91.10
2023-04-23T11:13:50.717Z,91.20
2023-04-23T11:16:24.060Z,90.40
2023-04-23T11:19:08.648Z,92.70
2023-04-23T11:22:02.916Z,92.50
2023-04-23T11:24:33.452Z,91.20
2023-04-23T11:27:01.459Z,91.50
2023-04-23T11:29:29.484Z,90.40
2023-04-23T11:32:03.078Z,90.00
2023-04-23T11:34:33.171Z,90.80
2023-04-23T11:37:02.831Z,92.40
2023-04-23T11:39:32.532Z,93.20
2023-04-23T11:42:03.572Z,93.90
2023-04-23T11:44:31.678Z,93.00
2023-04-23T11:47:02.732Z,93.50
2023-04-23T11:49:30.612Z,93.70
2023-04-23T11:52:01.960Z,93.80
2023-04-23T11:54:33.496Z,95.00
2023-04-23T11:57:04.490Z,95.40
2023-04-23T11:59:32.315Z,95.30
2023-04-23T12:02:00.710Z,94.50
2023-04-23T12:04:30.833Z,93.00
2023-04-23T12:06:59.365Z,91.70
2023-04-23T12:09:29.493Z,92.40
2023-04-23T12:12:01.231Z,91.30
2023-04-23T12:14:30.912Z,90.50
2023-04-23T12:17:10.137Z,92.00
2023-04-23T12:19:38.650Z,90.50
2023-04-23T12:22:09.194Z,89.90
2023-04-23T12:24:54.563Z,90.80
2023-04-23T12:27:22.869Z,89.70
2023-04-23T12:30:00.382Z,88.90
2023-04-23T12:32:28.278Z,88.40
2023-04-23T12:34:56.885Z,89.00
2023-04-23T12:37:30.045Z,90.60
2023-04-23T12:40:00.936Z,89.70
2023-04-23T12:42:31.632Z,86.80
2023-04-23T12:45:07.484Z,88.30
2023-04-23T12:47:35.457Z,87.60
2023-04-23T12:50:04.116Z,90.20
2023-04-23T12:52:31.885Z,88.90
2023-04-23T12:55:01.412Z,85.40
2023-04-23T12:57:29.135Z,84.50
2023-04-23T12:59:56.870Z,85.40
2023-04-23T13:02:26.069Z,88.40
2023-04-23T13:05:01.069Z,83.70
2023-04-23T13:07:29.054Z,84.20
2023-04-23T13:09:57.473Z,85.20
2023-04-23T13:12:25.450Z,86.00
2023-04-23T13:14:53.314Z,85.00
2023-04-23T13:17:23.518Z,83.40
2023-04-23T13:19:54.861Z,84.50
2023-04-23T13:22:28.421Z,82.90
2023-04-23T13:24:59.721Z,87.40
2023-04-23T13:27:29.185Z,89.30
2023-04-23T13:29:57.193Z,88.50
2023-04-23T13:32:27.362Z,86.70
2023-04-23T13:34:55.706Z,86.50
2023-04-23T13:37:26.118Z,88.30
2023-04-23T13:39:53.965Z,87.20
2023-04-23T13:42:21.675Z,89.20
2023-04-23T13:44:49.381Z,86.10
2023-04-23T13:47:17.137Z,87.90
2023-04-23T13:49:44.928Z,89.00
2023-04-23T13:52:12.583Z,90.10
2023-04-23T13:54:43.361Z,86.40
2023-04-23T13:57:30.267Z,84.80
2023-04-23T14:00:07.945Z,84.70
2023-04-23T14:02:35.792Z,87.20
2023-04-23T14:05:04.321Z,87.60
2023-04-23T14:07:32.527Z,90.00
2023-04-23T14:10:00.777Z,90.30
2023-04-23T14:12:29.688Z,90.00
2023-04-23T14:14:57.412Z,90.10
2023-04-23T14:17:25.193Z,90.10
2023-04-23T14:19:53.021Z,91.10
2023-04-23T14:22:20.668Z,92.30
2023-04-23T14:24:57.076Z,93.20
2023-04-23T14:27:24.664Z,93.00
2023-04-23T14:29:58.170Z,93.90
2023-04-23T14:32:25.858Z,94.80
2023-04-23T14:34:53.576Z,95.70
2023-04-23T14:37:21.483Z,96.10
2023-04-23T14:39:49.134Z,96.50
2023-04-23T14:42:17.438Z,97.00
2023-04-23T14:44:47.763Z,95.70
2023-04-23T14:47:16.058Z,96.20
2023-04-23T14:49:44.841Z,95.60
2023-04-23T14:52:12.762Z,95.00
2023-04-23T14:54:40.600Z,95.20
2023-04-23T14:57:08.513Z,96.70
2023-04-23T14:59:36.357Z,96.60
2023-04-23T15:02:04.110Z,96.20
2023-04-23T15:04:31.886Z,96.10
2023-04-23T15:06:59.568Z,97.20
2023-04-23T15:09:27.189Z,98.30
2023-04-23T15:11:54.917Z,99.10
2023-04-23T15:14:31.536Z,98.50
2023-04-23T15:17:00.283Z,98.40
2023-04-23T15:19:28.610Z,98.60
2023-04-23T15:21:56.248Z,98.80
2023-04-23T15:24:23.932Z,97.90
2023-04-23T15:26:53.378Z,97.80
2023-04-23T15:29:21.341Z,97.20
2023-04-23T15:31:49.553Z,97.50
2023-04-23T15:34:17.255Z,98.10
2023-04-23T15:36:44.849Z,98.50
2023-04-23T15:39:12.490Z,98.00
2023-04-23T15:41:41.525Z,98.20
2023-04-23T15:44:35.519Z,98.40
2023-04-23T15:51:02.342Z,99.10
2023-04-23T15:54:03.356Z,99.40
2023-04-23T16:00:17.208Z,99.90
2023-04-23T16:02:54.365Z,99.90
2023-04-23T16:05:42.249Z,99.90
2023-04-23T16:08:39.973Z,99.90
2023-04-23T16:11:14.918Z,99.40
2023-04-23T16:13:42.666Z,98.30
2023-04-23T16:16:10.370Z,99.40
2023-04-23T16:18:38.057Z,99.20
2023-04-23T16:21:06.401Z,98.80
2023-04-23T16:23:35.838Z,98.60
2023-04-23T16:26:08.741Z,98.50
2023-04-23T16:28:36.493Z,98.90
2023-04-23T16:31:04.387Z,98.50
2023-04-23T16:33:32.146Z,99.10
2023-04-23T16:36:00.643Z,99.20
2023-04-23T16:39:17.262Z,99.20
2023-04-23T16:41:47.636Z,99.90
2023-04-23T16:44:18.876Z,99.30
2023-04-23T16:46:46.772Z,99.70
2023-04-23T16:49:14.579Z,99.90
2023-04-23T16:51:42.392Z,99.80
2023-04-23T16:54:10.215Z,99.20
2023-04-23T16:56:38.174Z,99.50
2023-04-23T16:59:06.401Z,99.70
2023-04-23T17:01:34.307Z,99.20
2023-04-23T17:04:02.253Z,99.70
2023-04-23T17:06:31.632Z,99.50
2023-04-23T17:09:01.177Z,99.50
2023-04-23T17:11:30.992Z,99.80
2023-04-23T17:13:59.171Z,99.40
2023-04-23T17:16:27.140Z,99.50
2023-04-23T17:18:55.724Z,99.80
2023-04-23T17:21:23.907Z,99.10
2023-04-23T17:23:51.697Z,99.30
2023-04-23T17:26:19.725Z,99.50
2023-04-23T17:28:47.379Z,99.90
2023-04-23T17:31:16.385Z,99.90
2023-04-23T17:33:45.597Z,99.90
2023-04-23T17:36:13.435Z,99.90
2023-04-23T17:38:41.363Z,99.90
2023-04-23T17:41:09.191Z,99.90
2023-04-23T17:43:36.995Z,99.90
2023-04-23T17:46:04.811Z,99.90
2023-04-23T17:48:32.596Z,99.90
2023-04-23T17:51:00.362Z,99.90
2023-04-23T17:53:28.091Z,99.90
2023-04-23T17:55:59.596Z,99.90
2023-04-23T17:58:27.405Z,99.90
2023-04-23T18:00:55.208Z,99.90
2023-04-23T18:03:23.475Z,99.90
2023-04-23T18:05:51.527Z,99.90
2023-04-23T18:08:21.656Z,99.90
2023-04-23T18:10:49.469Z,99.90
2023-04-23T18:13:18.459Z,99.90
2023-04-23T18:15:49.828Z,99.90
2023-04-23T18:18:21.917Z,99.90
2023-04-23T18:20:52.088Z,99.90
2023-04-23T18:23:23.690Z,99.90
2023-04-23T18:25:51.799Z,99.90
2023-04-23T18:28:19.426Z,99.90
2023-04-23T18:30:47.323Z,99.90
2023-04-23T18:33:42.576Z,99.90
2023-04-23T18:36:32.980Z,99.90
2023-04-23T18:39:00.732Z,99.90
2023-04-23T18:41:30.023Z,99.90
2023-04-23T18:43:59.999Z,99.90
2023-04-23T18:46:30.391Z,99.90
2023-04-23T18:49:00.181Z,99.90
2023-04-23T18:51:42.905Z,99.90
2023-04-23T18:54:14.944Z,99.90
2023-04-23T18:56:42.684Z,99.90
2023-04-23T18:59:10.427Z,99.90
2023-04-23T19:01:40.187Z,99.90
2023-04-23T19:04:08.363Z,99.90
2023-04-23T19:06:36.350Z,99.90
2023-04-23T19:09:04.256Z,99.90
2023-04-23T19:11:35.306Z,99.90
2023-04-23T19:14:05.733Z,99.90
2023-04-23T19:16:33.684Z,99.90
2023-04-23T19:19:05.773Z,99.90
2023-04-23T19:21:33.727Z,99.90
2023-04-23T19:24:01.398Z,99.90
2023-04-23T19:26:29.404Z,99.90
2023-04-23T19:28:57.032Z,99.90
2023-04-23T19:31:29.176Z,99.90
2023-04-23T19:34:00.474Z,99.90
2023-04-23T19:36:34.380Z,99.90
2023-04-23T19:39:02.145Z,99.90
2023-04-23T19:41:29.852Z,99.90
2023-04-23T19:43:57.432Z,99.90
2023-04-23T19:46:28.627Z,99.90
2023-04-23T19:48:57.602Z,99.90
2023-04-23T19:51:32.963Z,99.90
2023-04-23T19:54:00.878Z,99.90
2023-04-23T19:56:28.484Z,99.90
2023-04-23T19:58:56.368Z,99.90
2023-04-23T20:01:24.952Z,99.90
2023-04-23T20:03:53.770Z,99.90
2023-04-23T20:06:21.543Z,99.90
2023-04-23T20:09:07.655Z,99.90
2023-04-23T20:11:36.129Z,99.90
2023-04-23T20:14:04.100Z,99.90
2023-04-23T20:16:31.830Z,99.90
2023-04-23T20:18:59.904Z,99.90
2023-04-23T20:21:27.697Z,99.90
2023-04-23T20:23:55.919Z,99.90
2023-04-23T20:26:23.547Z,99.90
2023-04-23T20:28:51.338Z,99.90
2023-04-23T20:31:20.780Z,99.90
2023-04-23T20:33:49.015Z,99.90
2023-04-23T20:36:16.665Z,99.90
2023-04-23T20:38:44.923Z,99.90
2023-04-23T20:41:12.873Z,99.90
2023-04-23T20:43:43.245Z,99.90
2023-04-23T20:46:11.554Z,99.90
2023-04-23T20:48:39.389Z,99.90
2023-04-23T20:51:07.898Z,99.90
2023-04-23T20:53:35.752Z,99.90
2023-04-23T20:56:03.365Z,99.90
2023-04-23T20:58:30.938Z,99.90
2023-04-23T21:00:59.272Z,99.90
2023-04-23T21:03:27.615Z,99.90
2023-04-23T21:05:56.045Z,99.90
2023-04-23T21:08:23.664Z,99.90
2023-04-23T21:10:51.658Z,99.90
2023-04-23T21:13:19.604Z,99.90
2023-04-23T21:15:47.768Z,99.90
2023-04-23T21:18:15.933Z,99.90
2023-04-23T21:20:43.821Z,99.90
2023-04-23T21:23:12.213Z,99.90
2023-04-23T21:25:40.146Z,99.90
2023-04-23T21:28:07.842Z,99.90
2023-04-23T21:30:44.298Z,99.90
2023-04-23T21:33:12.290Z,99.90
2023-04-23T21:35:40.013Z,99.90
2023-04-23T21:38:09.210Z,99.90
2023-04-23T21:40:37.626Z,99.90
2023-04-23T21:43:06.481Z,99.90
2023-04-23T21:45:34.667Z,99.90
2023-04-23T21:48:02.841Z,99.90
2023-04-23T21:50:31.666Z,99.90
2023-04-23T21:53:00.623Z,99.90
2023-04-23T21:55:29.676Z,99.90
2023-04-23T21:58:09.701Z,99.90
2023-04-23T22:00:44.712Z,99.90
2023-04-23T22:03:15.419Z,99.90
2023-04-23T22:05:47.852Z,99.90
2023-04-23T22:08:16.775Z,99.90
2023-04-23T22:10:44.826Z,99.90
2023-04-23T22:13:14.315Z,99.90
2023-04-23T22:15:42.389Z,99.90
2023-04-23T22:18:10.563Z,99.90
2023-04-23T22:20:44.074Z,99.90
2023-04-23T22:23:11.806Z,99.90
2023-04-23T22:25:39.412Z,99.90
2023-04-23T22:28:07.922Z,99.90
2023-04-23T22:30:35.837Z,99.90
2023-04-23T22:33:04.122Z,99.90
2023-04-23T22:35:32.408Z,99.90
2023-04-23T22:38:00.438Z,99.90
2023-04-23T22:40:28.131Z,99.90
2023-04-23T22:42:56.036Z,99.90
2023-04-23T22:45:23.984Z,99.90
2023-04-23T22:47:51.921Z,99.90
2023-04-23T22:50:19.596Z,99.90
2023-04-23T22:52:47.279Z,99.90
2023-04-23T22:55:15.609Z,99.90
2023-04-23T22:57:43.306Z,99.90
2023-04-23T23:00:11.606Z,99.90
2023-04-23T23:02:42.426Z,99.90
2023-04-23T23:05:10.440Z,99.90
2023-04-23T23:07:38.611Z,99.90
2023-04-23T23:10:08.842Z,99.90
2023-04-23T23:12:36.988Z,99.90
2023-04-23T23:15:06.015Z,99.90
2023-04-23T23:17:33.975Z,99.90
2023-04-23T23:20:01.705Z,99.90
2023-04-23T23:22:29.488Z,99.90
2023-04-23T23:24:57.917Z,99.90
2023-04-23T23:27:25.983Z,99.90
2023-04-23T23:29:53.687Z,99.90
2023-04-23T23:32:23.218Z,99.90
2023-04-23T23:34:51.688Z,99.90
2023-04-23T23:37:19.360Z,99.90
2023-04-23T23:39:47.014Z,99.90
2023-04-23T23:42:14.681Z,99.90
2023-04-23T23:44:42.423Z,99.90
2023-04-23T23:47:10.060Z,99.90
2023-04-23T23:49:37.751Z,99.90
2023-04-23T23:52:05.589Z,99.90
2023-04-23T23:54:33.253Z,99.90
2023-04-23T23:57:01.957Z,99.90
2023-04-23T23:59:29.525Z,99.90
